createdAt,value
2017-11-16T00:00:34.812Z,5.00
2017-11-16T00:03:03.052Z,5.13
2017-11-16T00:05:34.831Z,4.50
2017-11-16T00:08:01.653Z,5.93
2017-11-16T00:10:29.234Z,4.63
2017-11-16T00:13:01.504Z,5.33
2017-11-16T00:15:29.060Z,5.00
2017-11-16T00:18:02.101Z,5.33
2017-11-16T00:20:28.945Z,4.83
2017-11-16T00:22:57.725Z,5.23
2017-11-16T00:25:31.471Z,5.13
2017-11-16T00:27:59.128Z,5.13
2017-11-16T00:30:32.304Z,5.40
2017-11-16T00:32:59.230Z,4.97
2017-11-16T00:35:31.260Z,6.13
2017-11-16T00:38:02.085Z,5.97
2017-11-16T00:40:29.035Z,6.03
2017-11-16T00:43:02.366Z,6.13
2017-11-16T00:45:29.445Z,5.80
2017-11-16T00:47:57.048Z,5.47
2017-11-16T00:50:24.797Z,5.63
2017-11-16T00:52:52.294Z,5.37
2017-11-16T00:55:19.159Z,4.37
2017-11-16T00:57:46.415Z,5.60
2017-11-16T01:00:19.407Z,5.00
2017-11-16T01:02:47.536Z,5.23
2017-11-16T01:05:19.818Z,5.47
2017-11-16T01:07:53.337Z,5.27
2017-11-16T01:10:21.097Z,5.70
2017-11-16T01:12:47.985Z,5.77
2017-11-16T01:15:14.804Z,6.47
2017-11-16T01:17:47.991Z,5.70
2017-11-16T01:20:20.646Z,6.47
2017-11-16T01:22:47.498Z,5.53
2017-11-16T01:25:14.328Z,5.70
2017-11-16T01:27:41.187Z,6.63
2017-11-16T01:30:08.060Z,6.70
2017-11-16T01:32:34.869Z,7.07
2017-11-16T01:35:02.466Z,6.33
2017-11-16T01:37:29.301Z,7.57
2017-11-16T01:39:56.907Z,6.70
2017-11-16T01:42:23.784Z,6.83
2017-11-16T01:44:50.655Z,6.50
2017-11-16T01:47:17.481Z,6.33
2017-11-16T01:49:45.040Z,6.87
2017-11-16T01:52:12.624Z,7.10
2017-11-16T01:54:40.213Z,5.47
2017-11-16T01:57:07.815Z,7.77
2017-11-16T01:59:34.652Z,7.33
2017-11-16T02:02:02.346Z,6.80
2017-11-16T02:04:29.279Z,6.27
2017-11-16T02:06:56.866Z,8.03
2017-11-16T02:09:24.455Z,7.20
2017-11-16T02:11:52.020Z,6.67
2017-11-16T02:14:19.604Z,8.20
2017-11-16T02:16:47.200Z,6.90
2017-11-16T02:19:14.110Z,7.47
2017-11-16T02:21:41.027Z,7.47
2017-11-16T02:24:07.907Z,8.00
2017-11-16T02:26:34.774Z,8.53
2017-11-16T02:29:01.699Z,8.57
2017-11-16T02:31:29.327Z,8.43
2017-11-16T02:33:56.233Z,8.00
2017-11-16T02:36:23.848Z,9.13
2017-11-16T02:38:50.743Z,10.17
2017-11-16T02:41:17.645Z,9.73
2017-11-16T02:43:44.540Z,9.00
2017-11-16T02:46:11.436Z,10.20
2017-11-16T02:48:38.330Z,9.20
2017-11-16T02:51:05.220Z,9.70
2017-11-16T02:53:32.820Z,10.07
2017-11-16T02:55:59.757Z,10.43
2017-11-16T02:58:26.659Z,10.90
2017-11-16T03:00:53.546Z,10.37
2017-11-16T03:03:21.191Z,10.80
2017-11-16T03:05:48.032Z,10.50
2017-11-16T03:08:14.857Z,10.57
2017-11-16T03:10:42.448Z,10.87
2017-11-16T03:13:09.320Z,11.43
2017-11-16T03:15:36.172Z,11.53
2017-11-16T03:18:03.025Z,11.13
2017-11-16T03:20:29.868Z,11.10
2017-11-16T03:22:57.466Z,11.37
2017-11-16T03:25:24.354Z,10.80
2017-11-16T03:27:51.252Z,12.20
2017-11-16T03:30:18.134Z,11.83
2017-11-16T03:32:45.745Z,13.50
2017-11-16T03:35:13.381Z,11.43
2017-11-16T03:37:40.315Z,10.82
2017-11-16T03:40:07.196Z,11.67
2017-11-16T03:42:34.043Z,11.97
2017-11-16T03:45:00.929Z,10.63
2017-11-16T03:47:27.778Z,11.70
2017-11-16T03:49:54.643Z,11.70
2017-11-16T03:52:21.537Z,11.23
2017-11-16T03:54:49.129Z,11.90
2017-11-16T03:57:15.969Z,11.87
2017-11-16T03:59:43.591Z,11.60
2017-11-16T04:02:10.432Z,12.10
2017-11-16T04:04:37.276Z,12.73
2017-11-16T04:07:04.863Z,10.73
2017-11-16T04:09:31.648Z,12.47
2017-11-16T04:11:58.564Z,12.73
2017-11-16T04:14:26.192Z,13.77
2017-11-16T04:16:53.077Z,12.77
2017-11-16T04:19:19.914Z,13.63
2017-11-16T04:21:46.786Z,13.57
2017-11-16T04:24:13.620Z,13.40
2017-11-16T04:26:40.496Z,13.13
2017-11-16T04:29:07.348Z,14.97
2017-11-16T04:31:34.277Z,13.63
2017-11-16T04:34:01.879Z,13.80
2017-11-16T04:36:28.743Z,14.02
2017-11-16T04:38:55.592Z,14.57
2017-11-16T04:41:22.424Z,15.07
2017-11-16T04:43:51.356Z,14.93
2017-11-16T04:46:18.276Z,15.07
2017-11-16T04:48:45.147Z,15.27
2017-11-16T04:51:11.986Z,17.37
2017-11-16T04:53:38.826Z,14.80
2017-11-16T04:56:05.654Z,15.03
2017-11-16T04:58:33.236Z,16.03
2017-11-16T05:01:00.831Z,16.03
2017-11-16T05:03:27.704Z,16.23
2017-11-16T05:05:54.550Z,15.73
2017-11-16T05:08:21.392Z,15.30
2017-11-16T05:10:49.051Z,15.80
2017-11-16T05:13:15.873Z,15.40
2017-11-16T05:15:42.681Z,14.40
2017-11-16T05:18:09.555Z,15.85
2017-11-16T05:20:37.164Z,17.25
2017-11-16T05:23:04.073Z,17.98
2017-11-16T05:25:30.922Z,16.60
2017-11-16T05:27:57.783Z,15.90
2017-11-16T05:30:24.649Z,16.70
2017-11-16T05:32:51.504Z,14.60
2017-11-16T05:35:18.369Z,16.73
2017-11-16T05:37:45.208Z,17.33
2017-11-16T05:40:12.043Z,16.93
2017-11-16T05:42:39.629Z,15.90
2017-11-16T05:45:06.476Z,16.40
2017-11-16T05:47:34.392Z,17.67
2017-11-16T05:50:01.253Z,17.60
2017-11-16T05:52:28.124Z,16.87
2017-11-16T05:54:54.965Z,16.73
2017-11-16T05:57:21.899Z,16.52
2017-11-16T05:59:50.644Z,16.97
2017-11-16T06:02:17.550Z,16.98
2017-11-16T06:04:44.417Z,17.30
2017-11-16T06:07:12.005Z,16.67
2017-11-16T06:09:39.619Z,18.03
2017-11-16T06:12:06.564Z,17.35
2017-11-16T06:14:33.435Z,18.65
2017-11-16T06:17:00.302Z,17.98
2017-11-16T06:19:27.154Z,17.80
2017-11-16T06:21:53.982Z,17.23
2017-11-16T06:24:20.841Z,18.03
2017-11-16T06:26:47.678Z,16.35
2017-11-16T06:29:14.554Z,16.52
2017-11-16T06:31:41.424Z,16.48
2017-11-16T06:34:08.240Z,17.60
2017-11-16T06:36:35.796Z,15.63
2017-11-16T06:39:02.782Z,15.53
2017-11-16T06:54:22.574Z,16.33
2017-11-16T06:56:49.421Z,16.30
2017-11-16T06:59:16.475Z,16.70
2017-11-16T07:01:43.311Z,17.17
2017-11-16T07:04:10.145Z,15.80
2017-11-16T07:06:37.733Z,17.20
2017-11-16T07:09:05.296Z,15.93
2017-11-16T07:11:32.846Z,16.57
2017-11-16T07:14:00.243Z,17.70
2017-11-16T07:16:27.202Z,17.33
2017-11-16T07:18:54.020Z,17.70
2017-11-16T07:21:20.865Z,17.63
2017-11-16T07:23:47.693Z,17.53
2017-11-16T07:26:14.515Z,17.27
2017-11-16T07:28:41.403Z,17.50
2017-11-16T07:31:08.225Z,16.90
2017-11-16T07:33:36.161Z,17.33
2017-11-16T07:36:03.825Z,17.23
2017-11-16T07:38:30.678Z,18.70
2017-11-16T07:40:57.588Z,18.30
2017-11-16T07:43:24.508Z,19.33
2017-11-16T07:45:51.402Z,20.17
2017-11-16T07:48:18.241Z,20.05
2017-11-16T07:50:45.109Z,19.60
2017-11-16T07:53:12.705Z,20.05
2017-11-16T07:55:40.281Z,20.83
2017-11-16T07:58:07.850Z,21.30
2017-11-16T08:00:35.456Z,19.63
2017-11-16T08:03:02.291Z,20.10
2017-11-16T08:05:30.546Z,20.50
2017-11-16T08:07:57.498Z,20.53
2017-11-16T08:10:25.086Z,21.27
2017-11-16T08:12:51.909Z,19.35
2017-11-16T08:15:18.743Z,20.60
2017-11-16T08:17:46.339Z,20.80
2017-11-16T08:20:13.137Z,19.50
2017-11-16T08:22:39.939Z,19.50
2017-11-16T08:25:07.526Z,20.58
2017-11-16T08:27:35.099Z,20.70
2017-11-16T08:30:02.721Z,19.60
2017-11-16T08:32:29.539Z,18.97
2017-11-16T08:34:56.407Z,20.23
2017-11-16T08:37:24.025Z,22.27
2017-11-16T08:39:50.875Z,21.13
2017-11-16T08:42:17.726Z,21.90
2017-11-16T08:44:44.632Z,21.10
2017-11-16T08:47:11.510Z,20.83
2017-11-16T08:49:38.419Z,21.50
2017-11-16T08:52:05.353Z,21.80
2017-11-16T08:54:33.032Z,21.00
2017-11-16T08:57:00.693Z,22.87
2017-11-16T08:59:27.578Z,20.90
2017-11-16T09:01:55.194Z,20.47
2017-11-16T09:04:22.137Z,21.30
2017-11-16T09:06:49.076Z,20.10
2017-11-16T09:09:16.705Z,20.67
2017-11-16T09:11:43.624Z,22.93
2017-11-16T09:14:11.262Z,19.60
2017-11-16T09:16:38.215Z,19.70
2017-11-16T09:19:05.425Z,19.93
2017-11-16T09:21:32.359Z,21.80
2017-11-16T09:23:59.231Z,20.60
2017-11-16T09:26:26.237Z,20.37
2017-11-16T09:28:53.172Z,22.07
2017-11-16T09:31:20.800Z,21.80
2017-11-16T09:33:47.629Z,22.00
2017-11-16T09:36:15.251Z,20.40
2017-11-16T09:38:42.147Z,19.37
2017-11-16T09:41:09.077Z,22.30
2017-11-16T09:43:35.950Z,21.53
2017-11-16T09:46:03.627Z,20.33
2017-11-16T09:48:30.453Z,20.40
2017-11-16T09:50:57.258Z,19.13
2017-11-16T09:53:24.121Z,18.30
2017-11-16T09:55:50.966Z,17.10
2017-11-16T09:58:17.813Z,19.10
2017-11-16T10:00:44.685Z,19.23
2017-11-16T10:03:11.529Z,18.37
2017-11-16T10:05:38.345Z,18.87
2017-11-16T10:08:05.165Z,19.73
2017-11-16T10:10:32.005Z,19.07
2017-11-16T10:12:58.851Z,19.40
2017-11-16T10:15:26.394Z,18.97
2017-11-16T10:17:53.218Z,18.57
2017-11-16T10:20:20.093Z,18.67
2017-11-16T10:22:46.900Z,18.50
2017-11-16T10:25:13.707Z,19.50
2017-11-16T10:27:40.624Z,19.27
2017-11-16T10:30:08.250Z,19.83
2017-11-16T10:32:35.129Z,18.70
2017-11-16T10:35:01.966Z,17.67
2017-11-16T10:37:28.825Z,17.93
2017-11-16T10:39:55.711Z,18.67
2017-11-16T10:42:22.597Z,18.70
2017-11-16T10:44:49.459Z,18.90
2017-11-16T10:47:16.354Z,19.40
2017-11-16T10:49:43.229Z,19.60
2017-11-16T10:52:11.021Z,19.20
2017-11-16T10:54:43.232Z,19.90
2017-11-16T10:57:10.151Z,19.37
2017-11-16T10:59:37.060Z,20.57
2017-11-16T11:02:04.042Z,17.53
2017-11-16T11:04:31.005Z,17.00
2017-11-16T11:06:57.820Z,20.83
2017-11-16T11:09:24.733Z,20.10
2017-11-16T11:11:52.484Z,18.80
2017-11-16T11:14:19.633Z,17.43
2017-11-16T11:16:52.525Z,19.70
2017-11-16T11:19:19.751Z,21.43
2017-11-16T11:21:47.030Z,18.80
2017-11-16T11:24:14.714Z,17.60
2017-11-16T11:26:46.677Z,18.30
2017-11-16T11:29:14.542Z,18.40
2017-11-16T11:31:41.675Z,18.23
2017-11-16T11:34:08.492Z,18.93
2017-11-16T11:36:36.342Z,17.30
2017-11-16T11:39:03.517Z,17.20
2017-11-16T11:41:36.231Z,18.23
2017-11-16T11:44:03.059Z,19.00
2017-11-16T11:46:35.871Z,19.00
2017-11-16T11:49:15.204Z,19.10
2017-11-16T11:51:43.058Z,17.30
2017-11-16T11:54:15.105Z,17.43
2017-11-16T11:56:53.450Z,18.20
2017-11-16T11:59:21.120Z,16.37
2017-11-16T12:01:48.672Z,16.50
2017-11-16T12:04:15.841Z,16.13
2017-11-16T12:06:43.560Z,16.23
2017-11-16T12:09:12.051Z,15.47
2017-11-16T12:11:39.940Z,16.30
2017-11-16T12:14:07.798Z,17.40
2017-11-16T12:16:35.877Z,14.87
2017-11-16T12:19:08.856Z,15.73
2017-11-16T12:21:38.489Z,16.83
2017-11-16T12:24:06.721Z,16.70
2017-11-16T12:26:34.913Z,15.50
2017-11-16T12:29:02.028Z,18.27
2017-11-16T12:31:29.216Z,16.83
2017-11-16T12:34:01.225Z,17.67
2017-11-16T12:36:34.196Z,16.43
2017-11-16T12:39:06.217Z,16.30
2017-11-16T12:41:34.214Z,17.07
2017-11-16T12:44:02.314Z,14.90
2017-11-16T12:46:32.229Z,15.43
2017-11-16T12:49:04.911Z,15.97
2017-11-16T12:51:34.927Z,15.50
2017-11-16T12:54:08.153Z,15.13
2017-11-16T12:56:36.635Z,16.13
2017-11-16T12:59:05.269Z,15.97
2017-11-16T13:01:32.902Z,14.67
2017-11-16T13:04:00.420Z,14.37
2017-11-16T13:06:28.009Z,12.97
2017-11-16T13:08:54.960Z,13.20
2017-11-16T13:11:21.913Z,13.40
2017-11-16T13:13:49.672Z,13.70
2017-11-16T13:16:22.233Z,13.87
2017-11-16T13:18:49.272Z,14.03
2017-11-16T13:21:21.508Z,13.50
2017-11-16T13:23:49.661Z,14.50
2017-11-16T13:26:22.219Z,13.43
2017-11-16T13:28:49.252Z,13.10
2017-11-16T13:31:16.708Z,13.10
2017-11-16T13:33:43.716Z,14.53
2017-11-16T13:36:10.558Z,13.17
2017-11-16T13:38:42.780Z,13.30
2017-11-16T13:41:10.471Z,13.60
2017-11-16T13:43:37.393Z,12.70
2017-11-16T13:46:05.454Z,13.03
2017-11-16T13:48:32.494Z,14.73
2017-11-16T13:50:59.482Z,14.67
2017-11-16T13:53:32.709Z,13.93
2017-11-16T13:56:02.677Z,13.60
2017-11-16T13:58:29.831Z,12.87
2017-11-16T14:01:01.960Z,13.13
2017-11-16T14:03:34.257Z,14.07
2017-11-16T14:06:02.273Z,12.73
2017-11-16T14:08:29.459Z,13.50
2017-11-16T14:10:56.438Z,13.77
2017-11-16T14:13:24.084Z,14.03
2017-11-16T14:15:51.033Z,13.73
2017-11-16T14:18:18.047Z,13.50
2017-11-16T14:20:45.821Z,12.93
2017-11-16T14:23:15.986Z,12.83
2017-11-16T14:25:49.268Z,13.50
2017-11-16T14:28:16.137Z,14.60
2017-11-16T14:30:46.059Z,13.23
2017-11-16T14:33:12.968Z,13.60
2017-11-16T14:35:40.005Z,12.73
2017-11-16T14:38:12.200Z,12.57
2017-11-16T14:40:44.477Z,12.50
2017-11-16T14:43:11.847Z,12.60
2017-11-16T14:45:38.811Z,13.50
2017-11-16T14:48:06.270Z,12.70
2017-11-16T14:50:33.844Z,13.63
2017-11-16T14:53:01.424Z,14.07
2017-11-16T14:55:28.905Z,12.80
2017-11-16T14:57:56.545Z,13.97
2017-11-16T15:00:24.181Z,13.60
2017-11-16T15:02:51.082Z,13.90
2017-11-16T15:05:18.037Z,15.20
2017-11-16T15:07:52.202Z,14.50
2017-11-16T15:10:21.135Z,12.70
2017-11-16T15:12:49.738Z,13.90
2017-11-16T15:15:22.198Z,13.30
2017-11-16T15:17:49.105Z,13.00
2017-11-16T15:20:15.929Z,12.80
2017-11-16T15:22:42.905Z,13.40
2017-11-16T15:25:10.556Z,15.10
2017-11-16T15:27:43.200Z,14.17
2017-11-16T15:30:16.042Z,14.47
2017-11-16T15:32:48.184Z,13.97
2017-11-16T15:35:15.074Z,13.10
2017-11-16T15:37:42.315Z,12.53
2017-11-16T15:40:14.416Z,13.93
2017-11-16T15:42:43.219Z,13.40
2017-11-16T15:45:10.578Z,13.90
2017-11-16T15:47:37.843Z,14.40
2017-11-16T15:50:13.101Z,14.60
2017-11-16T15:52:45.245Z,13.53
2017-11-16T15:55:12.311Z,15.20
2017-11-16T15:57:39.582Z,13.40
2017-11-16T16:00:06.820Z,14.27
2017-11-16T16:02:33.927Z,13.30
2017-11-16T16:05:05.184Z,14.70
2017-11-16T16:07:33.056Z,16.80
2017-11-16T16:10:00.178Z,14.70
2017-11-16T16:12:28.261Z,13.40
2017-11-16T16:14:55.331Z,14.87
2017-11-16T16:17:24.160Z,13.83
2017-11-16T16:19:58.418Z,14.17
2017-11-16T16:22:30.581Z,13.87
2017-11-16T16:24:57.403Z,14.00
2017-11-16T16:27:25.024Z,14.10
2017-11-16T16:30:00.647Z,14.03
2017-11-16T16:32:31.594Z,13.03
2017-11-16T16:35:01.489Z,13.80
2017-11-16T16:37:31.218Z,13.83
2017-11-16T16:39:59.055Z,13.70
2017-11-16T16:42:27.087Z,13.00
2017-11-16T16:44:55.469Z,12.73
2017-11-16T16:47:22.609Z,11.83
2017-11-16T16:49:57.051Z,15.13
2017-11-16T16:52:24.220Z,14.23
2017-11-16T16:54:56.351Z,13.43
2017-11-16T16:57:25.244Z,14.07
2017-11-16T16:59:53.421Z,15.80
2017-11-16T17:02:20.424Z,14.70
2017-11-16T17:04:48.074Z,15.57
2017-11-16T17:07:15.579Z,13.70
2017-11-16T17:09:43.206Z,14.50
2017-11-16T17:12:11.037Z,16.67
2017-11-16T17:14:37.872Z,17.20
2017-11-16T17:17:04.812Z,17.80
2017-11-16T17:19:32.056Z,16.20
2017-11-16T17:21:59.080Z,17.17
2017-11-16T17:24:27.079Z,16.50
2017-11-16T17:26:54.011Z,17.37
2017-11-16T17:29:21.437Z,18.10
2017-11-16T17:31:49.358Z,18.40
2017-11-16T17:34:20.168Z,19.80
2017-11-16T17:36:47.320Z,19.23
2017-11-16T17:39:14.616Z,18.70
2017-11-16T17:41:41.629Z,19.00
2017-11-16T17:44:13.736Z,17.87
2017-11-16T17:46:41.111Z,18.53
2017-11-16T17:49:14.470Z,18.27
2017-11-16T17:51:41.677Z,17.03
2017-11-16T17:54:11.647Z,18.33
2017-11-16T17:56:39.720Z,17.50
2017-11-16T17:59:07.471Z,16.60
2017-11-16T18:01:35.160Z,17.47
2017-11-16T18:04:02.089Z,17.80
2017-11-16T18:06:28.921Z,17.00
2017-11-16T18:08:55.782Z,17.67
2017-11-16T18:11:23.399Z,17.63
2017-11-16T18:13:50.245Z,18.60
2017-11-16T18:16:17.094Z,16.80
2017-11-16T18:18:43.949Z,16.40
2017-11-16T18:21:11.515Z,18.80
2017-11-16T18:23:39.095Z,16.97
2017-11-16T18:26:06.720Z,18.10
2017-11-16T18:28:33.571Z,17.27
2017-11-16T18:31:00.418Z,17.27
2017-11-16T18:33:27.318Z,17.07
2017-11-16T18:35:54.175Z,18.47
2017-11-16T18:38:21.009Z,20.37
2017-11-16T18:40:47.867Z,18.67
2017-11-16T18:43:14.683Z,18.50
2017-11-16T18:45:41.557Z,18.50
2017-11-16T18:48:09.217Z,16.53
2017-11-16T18:50:36.033Z,17.77
2017-11-16T18:53:02.871Z,20.60
2017-11-16T18:55:30.500Z,17.70
2017-11-16T18:57:57.382Z,17.83
2017-11-16T19:00:24.344Z,22.07
2017-11-16T19:02:51.996Z,18.20
2017-11-16T19:05:19.495Z,18.20
2017-11-16T19:07:47.160Z,17.00
2017-11-16T19:10:14.038Z,19.23
2017-11-16T19:12:41.135Z,18.20
2017-11-16T19:15:08.166Z,18.87
2017-11-16T19:17:36.549Z,18.67
2017-11-16T19:20:03.461Z,19.37
2017-11-16T19:22:31.097Z,19.37
2017-11-16T19:24:59.931Z,19.43
2017-11-16T19:27:28.662Z,19.50
2017-11-16T19:29:57.243Z,20.20
2017-11-16T19:32:25.940Z,19.87
2017-11-16T19:34:54.932Z,22.33
2017-11-16T19:37:23.828Z,23.00
2017-11-16T19:39:52.788Z,24.03
2017-11-16T19:42:21.505Z,22.70
2017-11-16T19:44:50.729Z,22.70
2017-11-16T19:47:19.577Z,23.13
2017-11-16T19:49:47.679Z,25.53
2017-11-16T19:52:16.783Z,24.73
2017-11-16T19:54:45.689Z,24.10
2017-11-16T19:57:14.507Z,25.63
2017-11-16T19:59:43.215Z,23.63
2017-11-16T20:02:12.052Z,24.57
2017-11-16T20:04:40.463Z,27.00
2017-11-16T20:07:08.756Z,25.40
2017-11-16T20:09:38.315Z,25.73
2017-11-16T20:12:06.919Z,26.67
2017-11-16T20:14:35.505Z,29.07
2017-11-16T20:17:04.407Z,27.07
2017-11-16T20:19:33.153Z,28.17
2017-11-16T20:22:01.637Z,25.57
2017-11-16T20:24:30.678Z,28.47
2017-11-16T20:26:59.524Z,28.80
2017-11-16T20:29:28.193Z,25.57
2017-11-16T20:31:56.852Z,27.07
2017-11-16T20:34:24.868Z,24.70
2017-11-16T20:50:47.927Z,30.40
2017-11-16T20:53:18.771Z,29.80
2017-11-16T20:55:47.681Z,32.40
2017-11-16T20:58:16.601Z,28.60
2017-11-16T21:00:45.120Z,31.60
2017-11-16T21:03:13.673Z,31.83
2017-11-16T21:05:42.194Z,30.80
2017-11-16T21:08:10.963Z,31.50
2017-11-16T21:10:39.102Z,32.33
2017-11-16T21:13:06.138Z,33.10
2017-11-16T21:15:34.352Z,33.07
2017-11-16T21:18:02.115Z,31.67
2017-11-16T21:20:28.990Z,30.90
2017-11-16T21:22:56.082Z,30.93
2017-11-16T21:25:23.004Z,32.40
2017-11-16T21:27:49.892Z,33.97
2017-11-16T21:30:16.940Z,35.20
2017-11-16T21:32:43.797Z,35.70
2017-11-16T21:35:10.657Z,33.50
2017-11-16T21:37:37.588Z,33.23
2017-11-16T21:40:04.474Z,34.13
2017-11-16T21:42:31.294Z,33.13
2017-11-16T21:44:58.167Z,34.80
2017-11-16T21:47:25.045Z,35.50
2017-11-16T21:49:52.585Z,35.30
2017-11-16T21:52:19.437Z,33.50
2017-11-16T21:54:46.269Z,35.00
2017-11-16T21:57:13.107Z,36.50
2017-11-16T21:59:41.198Z,36.10
2017-11-16T22:02:08.131Z,33.10
2017-11-16T22:04:35.067Z,30.90
2017-11-16T22:07:01.894Z,37.57
2017-11-16T22:09:29.490Z,35.27
2017-11-16T22:11:56.522Z,35.93
2017-11-16T22:14:24.137Z,38.67
2017-11-16T22:16:51.027Z,35.70
2017-11-16T22:19:17.911Z,35.60
2017-11-16T22:21:45.293Z,34.23
2017-11-16T22:24:12.128Z,38.17
2017-11-16T22:26:39.168Z,34.87
2017-11-16T22:29:06.029Z,33.97
2017-11-16T22:31:32.907Z,32.07
2017-11-16T22:34:00.574Z,35.77
2017-11-16T22:36:27.487Z,32.27
2017-11-16T22:38:54.328Z,34.63
2017-11-16T22:41:21.257Z,35.07
2017-11-16T22:43:48.433Z,34.87
2017-11-16T22:46:15.356Z,39.30
2017-11-16T22:48:42.208Z,35.13
2017-11-16T22:51:09.113Z,37.43
2017-11-16T22:53:35.978Z,35.20
2017-11-16T22:56:03.065Z,35.10
2017-11-16T22:58:29.910Z,34.13
2017-11-16T23:00:56.749Z,34.43
2017-11-16T23:03:23.556Z,33.97
2017-11-16T23:05:50.370Z,36.23
2017-11-16T23:08:17.197Z,33.53
2017-11-16T23:10:44.048Z,37.40
2017-11-16T23:13:10.877Z,35.90
2017-11-16T23:15:39.519Z,37.83
2017-11-16T23:18:09.323Z,36.97
2017-11-16T23:20:36.790Z,36.90
2017-11-16T23:23:03.655Z,37.93
2017-11-16T23:25:30.474Z,35.80
2017-11-16T23:27:57.293Z,36.30
2017-11-16T23:30:24.121Z,39.50
2017-11-16T23:32:50.954Z,37.10
2017-11-16T23:35:17.788Z,37.60
2017-11-16T23:37:44.610Z,38.23
2017-11-16T23:40:11.417Z,34.50
2017-11-16T23:42:38.229Z,38.10
2017-11-16T23:45:05.103Z,37.70
2017-11-16T23:47:32.244Z,36.30
2017-11-16T23:49:59.564Z,39.40
2017-11-16T23:52:27.109Z,38.60
2017-11-16T23:54:58.102Z,36.30
2017-11-16T23:57:25.090Z,38.37
2017-11-16T23:59:53.956Z,37.80
